Airfield :
LOGIN :

Register | Disclaimer

   EN    FR    IT 

 










Legend :    VFR   Marginal VFR   IFR   Intensive IFR   Very Intensive IFR
Visi :
Ceiling :
>= 8 km
>= 3000ft
5 to 8 km
1000 to 3000 ft
1500m to 5 km
500 to 1000 ft
800 to 1500m
200 to 500 ft
< 800m
< 200 ft
Symbols :   Thunderstorms  Fog  Heavy snow  Heavy precipitations  Wind > 20 kt
SIGMETs :     Misc.  Thunderstorms  Icing  Turbulence  Mountain Waves  Volcanic Ashes






- Airport Elevation : 286 ft
- IATA code : FFD


EGVA - RAF Fairford

CURRENT METAR :
  • 250856Z AUTO 30006KT 9999 FEW024 BKN033 16/12 A3001 RMK AO2 SLP164 T01610115 50001 VISNO RWY09 $

EXPIRED METARs :
  • 250801Z AUTO 29007KT 9999 BKN020 16/12 A3002 RMK AO2 BKN V SCT SLP167 VISNO RWY09 $
  • 250656Z AUTO 30009KT 9999 CLR 15/13 A3001 RMK AO2 SLP164 T01450132 VISNO RWY09 $
  • 250631Z AUTO 30007KT 9999 SCT015 SCT180 15/14 A3001 RMK AO2 SLP164 VISNO RWY09 $

TAF AMD TAF EGVA
Valid from the 25 at 06:00 until the 26 at 10:00 UTC


250816Z 2506/2610 26009KT 9999 BKN025 QNH2999INS
BECMG 2508/2509 30012KT 9999 BKN035 QNH2999INS
BECMG 2509/2510 30010G15KT 9999 BKN020 QNH2995INS
TEMPO 2516/2519 8000 -SHRA
BECMG 2519/2520 36009KT 9999 BKN015 QNH2997INS
BECMG 2522/2523 36009KT 9000 -SHRA OVC008 QNH3000INS TX18/2512Z TN12/2522Z LAST NO AMDS AFT 2508 NEXT 2514



MET'MAP, your aeronautical weather chart ! - Copyright ORBIFLY December 2007 - Disclaimer

ORBIFLY MET'MAP TEAM :

Programming & Development : Alexandra Zaïnal
Concept & original design : Baudouin d'Aumeries
Assistance for programming : Marc-Olivier Méhu
Technical & hardware support : Manuel Goepfert

Contact : metmap@orbifly.com




SOURCES & CREDITS :

   NOAA